createdAt,value
2018-06-11T00:00:15.112Z,9.43
2018-06-11T00:02:43.871Z,10.00
2018-06-11T00:05:12.548Z,9.80
2018-06-11T00:07:41.217Z,11.67
2018-06-11T00:10:09.958Z,10.77
2018-06-11T00:12:38.715Z,11.87
2018-06-11T00:15:07.483Z,10.70
2018-06-11T00:17:36.167Z,11.87
2018-06-11T00:20:06.907Z,10.60
2018-06-11T00:22:35.553Z,10.63
2018-06-11T00:25:04.260Z,11.03
2018-06-11T00:27:33.025Z,11.10
2018-06-11T00:30:01.723Z,12.37
2018-06-11T00:32:30.465Z,11.03
2018-06-11T00:34:59.239Z,11.10
2018-06-11T00:37:27.940Z,11.50
2018-06-11T00:39:56.682Z,11.87
2018-06-11T00:42:25.585Z,11.30
2018-06-11T00:44:54.296Z,11.70
2018-06-11T00:47:23.204Z,14.00
2018-06-11T00:49:51.915Z,12.00
2018-06-11T00:52:20.645Z,12.60
2018-06-11T00:54:49.378Z,11.73
2018-06-11T00:57:18.118Z,11.00
2018-06-11T00:59:46.803Z,12.27
2018-06-11T01:02:15.498Z,12.00
2018-06-11T01:04:44.219Z,12.57
2018-06-11T01:07:12.979Z,11.17
2018-06-11T01:09:41.725Z,12.00
2018-06-11T01:12:10.507Z,11.50
2018-06-11T01:14:39.230Z,13.27
2018-06-11T01:17:07.950Z,11.87
2018-06-11T01:19:36.678Z,11.87
2018-06-11T01:22:05.399Z,11.10
2018-06-11T01:24:34.111Z,12.07
2018-06-11T01:27:02.847Z,12.90
2018-06-11T01:29:31.539Z,13.93
2018-06-11T01:32:00.276Z,15.07
2018-06-11T01:34:29.089Z,13.33
2018-06-11T01:36:57.799Z,14.30
2018-06-11T01:39:26.541Z,15.77
2018-06-11T01:41:55.295Z,14.27
2018-06-11T01:44:27.461Z,17.43
2018-06-11T01:46:56.143Z,13.20
2018-06-11T01:49:24.869Z,13.50
2018-06-11T01:51:53.603Z,13.87
2018-06-11T01:54:21.934Z,15.27
2018-06-11T01:56:50.678Z,13.83
2018-06-11T01:59:19.435Z,14.53
2018-06-11T02:01:48.146Z,15.27
2018-06-11T02:04:17.855Z,13.30
2018-06-11T02:06:46.587Z,13.20
2018-06-11T02:09:15.303Z,13.83
2018-06-11T02:11:44.062Z,14.10
2018-06-11T02:14:12.771Z,13.87
2018-06-11T02:16:41.442Z,15.87
2018-06-11T02:19:10.145Z,14.17
2018-06-11T02:21:38.847Z,13.40
2018-06-11T02:24:07.522Z,14.07
2018-06-11T02:26:36.175Z,16.70
2018-06-11T02:29:04.888Z,13.23
2018-06-11T02:31:33.590Z,14.27
2018-06-11T02:34:02.642Z,12.93
2018-06-11T02:36:31.351Z,16.80
2018-06-11T02:39:00.114Z,13.90
2018-06-11T02:41:28.818Z,14.60
2018-06-11T02:43:57.523Z,14.27
2018-06-11T02:46:26.207Z,15.30
2018-06-11T02:48:54.890Z,19.50
2018-06-11T02:51:23.651Z,14.13
2018-06-11T02:53:52.325Z,13.47
2018-06-11T02:56:21.031Z,15.07
2018-06-11T02:58:49.763Z,13.80
2018-06-11T03:01:18.485Z,14.60
2018-06-11T03:03:47.176Z,15.33
2018-06-11T03:06:15.894Z,16.43
2018-06-11T03:08:44.630Z,15.27
2018-06-11T03:11:13.335Z,15.10
2018-06-11T03:13:42.070Z,15.73
2018-06-11T03:16:10.744Z,14.50
2018-06-11T03:18:43.209Z,15.47
2018-06-11T03:21:12.481Z,15.47
2018-06-11T03:23:41.274Z,15.90
2018-06-11T03:26:09.930Z,15.70
2018-06-11T03:28:39.033Z,15.20
2018-06-11T03:31:07.756Z,15.93
2018-06-11T03:33:36.472Z,16.30
2018-06-11T03:36:05.179Z,16.90
2018-06-11T03:38:33.866Z,16.50
2018-06-11T03:41:02.572Z,16.57
2018-06-11T03:43:31.367Z,17.77
2018-06-11T03:46:00.395Z,20.60
2018-06-11T03:48:29.135Z,19.40
2018-06-11T03:50:57.843Z,19.87
2018-06-11T03:53:26.551Z,17.33
2018-06-11T03:55:55.303Z,18.77
2018-06-11T03:58:24.027Z,18.40
2018-06-11T04:00:52.789Z,16.30
2018-06-11T04:03:21.514Z,18.33
2018-06-11T04:05:50.263Z,19.20
2018-06-11T04:08:18.959Z,18.53
2018-06-11T04:10:47.791Z,20.77
2018-06-11T04:13:16.478Z,18.83
2018-06-11T04:15:45.215Z,18.73
2018-06-11T04:18:13.917Z,19.03
2018-06-11T04:20:42.664Z,19.30
2018-06-11T04:23:11.390Z,21.63
2018-06-11T04:25:40.166Z,20.50
2018-06-11T04:28:08.840Z,21.43
2018-06-11T04:30:37.572Z,22.80
2018-06-11T04:33:06.380Z,21.20
2018-06-11T04:35:35.061Z,23.20
2018-06-11T04:38:03.729Z,20.37
2018-06-11T04:40:36.803Z,21.83
2018-06-11T04:43:05.558Z,20.73
2018-06-11T04:45:34.229Z,20.00
2018-06-11T04:48:02.971Z,20.77
2018-06-11T04:50:31.780Z,20.43
2018-06-11T04:53:00.841Z,20.17
2018-06-11T04:55:29.588Z,21.00
2018-06-11T04:57:58.310Z,18.63
2018-06-11T05:00:27.002Z,19.77
2018-06-11T05:02:55.721Z,21.27
2018-06-11T05:05:24.414Z,21.50
2018-06-11T05:07:53.114Z,19.83
2018-06-11T05:10:21.851Z,21.07
2018-06-11T05:12:50.594Z,20.37
2018-06-11T05:15:19.294Z,20.50
2018-06-11T05:17:48.002Z,22.17
2018-06-11T05:20:16.707Z,20.13
2018-06-11T05:22:45.440Z,19.30
2018-06-11T05:25:14.158Z,18.17
2018-06-11T05:27:42.847Z,18.30
2018-06-11T05:30:11.603Z,24.23
2018-06-11T05:32:40.426Z,19.73
2018-06-11T05:35:09.126Z,17.17
2018-06-11T05:37:38.841Z,17.17
2018-06-11T05:40:07.617Z,15.20
2018-06-11T05:42:36.326Z,17.43
2018-06-11T05:45:04.727Z,15.60
2018-06-11T05:47:33.491Z,15.80
2018-06-11T05:50:01.826Z,15.70
2018-06-11T05:52:30.558Z,14.40
2018-06-11T05:54:59.336Z,13.70
2018-06-11T05:57:28.023Z,13.93
2018-06-11T05:59:56.739Z,14.17
2018-06-11T06:02:27.611Z,14.17
2018-06-11T06:04:56.312Z,12.50
2018-06-11T06:07:25.014Z,13.17
2018-06-11T06:09:53.758Z,14.93
2018-06-11T06:12:22.479Z,13.40
2018-06-11T06:14:51.198Z,13.57
2018-06-11T06:17:19.976Z,13.40
2018-06-11T06:19:48.726Z,12.17
2018-06-11T06:22:17.550Z,11.80
2018-06-11T06:24:46.295Z,12.17
2018-06-11T06:27:15.176Z,11.90
2018-06-11T06:29:43.866Z,13.90
2018-06-11T06:32:12.618Z,13.03
2018-06-11T06:34:41.351Z,11.90
2018-06-11T06:37:10.071Z,12.20
2018-06-11T06:39:38.909Z,12.17
2018-06-11T06:42:07.602Z,11.10
2018-06-11T06:44:36.275Z,10.57
2018-06-11T06:47:05.016Z,9.07
2018-06-11T06:49:33.777Z,9.20
2018-06-11T06:52:02.501Z,9.63
2018-06-11T06:54:31.248Z,10.37
2018-06-11T06:56:59.938Z,11.40
2018-06-11T06:59:28.644Z,11.00
2018-06-11T07:01:57.369Z,10.33
2018-06-11T07:04:26.094Z,12.30
2018-06-11T07:06:54.813Z,10.90
2018-06-11T07:09:23.535Z,10.20
2018-06-11T07:11:52.224Z,10.80
2018-06-11T07:14:20.951Z,10.40
2018-06-11T07:16:49.752Z,11.17
2018-06-11T07:19:18.431Z,9.77
2018-06-11T07:21:47.136Z,10.80
2018-06-11T07:24:15.891Z,9.97
2018-06-11T07:26:44.599Z,11.47
2018-06-11T07:29:13.308Z,11.03
2018-06-11T07:31:42.069Z,11.00
2018-06-11T07:34:10.782Z,9.70
2018-06-11T07:36:39.480Z,10.77
2018-06-11T07:39:08.595Z,10.13
2018-06-11T07:41:37.310Z,10.60
2018-06-11T07:44:06.110Z,11.40
2018-06-11T07:46:34.874Z,10.10
2018-06-11T07:49:03.602Z,11.67
2018-06-11T07:51:32.319Z,10.60
2018-06-11T07:54:01.059Z,11.13
2018-06-11T07:56:29.786Z,10.73
2018-06-11T07:58:58.492Z,10.33
2018-06-11T08:01:27.298Z,12.10
2018-06-11T08:03:56.019Z,11.53
2018-06-11T08:06:24.380Z,10.70
2018-06-11T08:08:53.135Z,13.97
2018-06-11T08:11:21.869Z,10.97
2018-06-11T08:13:50.548Z,10.87
2018-06-11T08:16:21.208Z,10.87
2018-06-11T08:18:49.899Z,11.10
2018-06-11T08:21:27.991Z,11.13
2018-06-11T08:23:56.325Z,11.07
2018-06-11T08:26:25.046Z,11.63
2018-06-11T08:28:53.834Z,10.40
2018-06-11T08:31:22.177Z,11.40
2018-06-11T08:33:50.945Z,12.50
2018-06-11T08:36:19.274Z,11.13
2018-06-11T08:38:47.952Z,11.70
2018-06-11T08:41:16.670Z,10.97
2018-06-11T08:43:45.474Z,11.20
2018-06-11T08:46:14.209Z,11.77
2018-06-11T08:48:42.882Z,11.87
2018-06-11T08:51:11.630Z,11.17
2018-06-11T08:53:40.365Z,11.50
2018-06-11T08:56:09.038Z,10.80
2018-06-11T08:58:37.784Z,11.00
2018-06-11T09:01:06.536Z,12.10
2018-06-11T09:03:35.236Z,11.10
2018-06-11T09:06:03.875Z,10.83
2018-06-11T09:08:32.598Z,11.50
2018-06-11T09:11:01.305Z,11.93
2018-06-11T09:13:30.918Z,11.37
2018-06-11T09:15:59.688Z,11.23
2018-06-11T09:18:28.574Z,11.53
2018-06-11T09:20:57.261Z,11.33
2018-06-11T09:23:25.608Z,12.03
2018-06-11T09:25:54.329Z,10.60
2018-06-11T09:28:25.952Z,11.77
2018-06-11T09:30:54.656Z,11.10
2018-06-11T09:33:23.400Z,10.20
2018-06-11T09:35:52.149Z,11.47
2018-06-11T09:38:20.457Z,11.40
2018-06-11T09:40:49.179Z,12.30
2018-06-11T09:43:17.947Z,10.70
2018-06-11T09:45:46.650Z,10.87
2018-06-11T09:48:15.423Z,11.43
2018-06-11T09:50:44.169Z,12.20
2018-06-11T09:53:12.918Z,11.90
2018-06-11T09:55:41.662Z,11.70
2018-06-11T09:58:10.374Z,11.33
2018-06-11T10:00:39.091Z,11.17
2018-06-11T10:03:25.968Z,11.50
2018-06-11T10:05:54.693Z,11.57
2018-06-11T10:08:23.403Z,11.80
2018-06-11T10:10:55.778Z,12.77
2018-06-11T10:13:24.517Z,11.67
2018-06-11T10:15:53.272Z,11.63
2018-06-11T10:18:22.017Z,10.40
2018-06-11T10:20:50.728Z,10.30
2018-06-11T10:23:19.484Z,10.93
2018-06-11T10:25:48.399Z,11.07
2018-06-11T10:28:17.126Z,10.40
2018-06-11T10:30:45.904Z,10.50
2018-06-11T10:33:14.619Z,10.20
2018-06-11T10:35:43.354Z,9.33
2018-06-11T10:38:12.049Z,10.03
2018-06-11T10:40:40.757Z,9.70
2018-06-11T10:43:13.946Z,9.63
2018-06-11T10:45:42.713Z,10.53
2018-06-11T10:48:11.422Z,10.67
2018-06-11T10:50:40.291Z,11.20
2018-06-11T10:53:08.999Z,9.63
2018-06-11T10:55:37.698Z,9.70
2018-06-11T10:58:06.448Z,10.17
2018-06-11T11:00:34.770Z,9.70
2018-06-11T11:03:04.211Z,10.20
2018-06-11T11:05:32.925Z,9.80
2018-06-11T11:08:01.651Z,10.37
2018-06-11T11:10:30.328Z,10.10
2018-06-11T11:12:59.050Z,11.13
2018-06-11T11:15:27.421Z,11.20
2018-06-11T11:17:56.158Z,11.80
2018-06-11T11:20:24.850Z,11.90
2018-06-11T11:22:53.577Z,12.33
2018-06-11T11:25:22.290Z,12.60
2018-06-11T11:27:50.978Z,11.73
2018-06-11T11:30:19.762Z,12.10
2018-06-11T11:32:48.552Z,12.13
2018-06-11T11:35:17.283Z,12.40
2018-06-11T11:37:46.011Z,13.03
2018-06-11T11:40:18.759Z,12.47
2018-06-11T11:45:46.985Z,11.60
2018-06-11T11:51:08.656Z,12.00
2018-06-11T11:53:38.437Z,11.70
2018-06-11T11:56:07.202Z,11.00
2018-06-11T11:58:48.112Z,11.57
2018-06-11T12:01:16.877Z,11.30
2018-06-11T12:03:47.666Z,11.50
2018-06-11T12:06:16.474Z,11.37
2018-06-11T12:11:40.594Z,12.23
2018-06-11T12:14:09.471Z,10.60
2018-06-11T12:16:38.189Z,12.60
2018-06-11T12:19:06.586Z,12.27
2018-06-11T12:21:35.383Z,12.40
2018-06-11T12:24:04.078Z,12.80
2018-06-11T12:26:33.924Z,12.73
2018-06-11T12:29:02.679Z,12.93
2018-06-11T12:31:31.412Z,11.27
2018-06-11T12:34:18.091Z,11.77
2018-06-11T12:36:46.875Z,12.53
2018-06-11T12:39:15.574Z,11.73
2018-06-11T12:41:58.055Z,11.13
2018-06-11T12:44:26.745Z,11.30
2018-06-11T12:46:55.428Z,9.30
2018-06-11T12:49:24.172Z,8.27
2018-06-11T12:51:58.535Z,6.97
2018-06-11T12:54:27.270Z,7.80
2018-06-11T13:00:00.369Z,9.97
2018-06-11T13:02:29.067Z,10.20
2018-06-11T13:04:57.779Z,10.00
2018-06-11T13:07:26.486Z,9.87
2018-06-11T13:09:55.194Z,11.50
2018-06-11T13:12:23.913Z,11.63
2018-06-11T13:14:52.637Z,12.57
2018-06-11T13:17:21.416Z,39.17
2018-06-11T13:19:50.286Z,15.60
2018-06-11T13:22:18.651Z,10.87
2018-06-11T13:24:47.392Z,10.70
2018-06-11T13:27:16.103Z,11.10
2018-06-11T13:29:51.656Z,16.47
2018-06-11T13:32:21.201Z,11.60
2018-06-11T13:34:49.921Z,9.77
2018-06-11T13:37:18.715Z,9.57
2018-06-11T13:39:47.403Z,8.10
2018-06-11T13:42:16.087Z,10.27
2018-06-11T13:44:44.871Z,10.00
2018-06-11T13:47:13.517Z,9.87
2018-06-11T13:49:41.844Z,8.53
2018-06-11T13:52:10.563Z,9.53
2018-06-11T13:54:39.276Z,9.00
2018-06-11T13:57:07.958Z,27.73
2018-06-11T13:59:36.730Z,33.10
2018-06-11T14:02:05.089Z,9.30
2018-06-11T14:04:33.812Z,10.63
2018-06-11T14:07:02.556Z,8.10
2018-06-11T14:09:31.299Z,10.80
2018-06-11T14:12:04.344Z,8.17
2018-06-11T14:14:33.031Z,7.93
2018-06-11T14:17:01.360Z,9.07
2018-06-11T14:19:30.067Z,8.27
2018-06-11T14:22:00.895Z,7.43
2018-06-11T14:24:29.666Z,7.87
2018-06-11T14:26:59.411Z,9.07
2018-06-11T14:29:28.230Z,7.77
2018-06-11T14:31:56.971Z,8.57
2018-06-11T14:34:25.793Z,8.73
2018-06-11T14:36:54.475Z,10.33
2018-06-11T14:39:23.192Z,9.90
2018-06-11T14:41:52.017Z,10.40
2018-06-11T14:44:21.083Z,12.30
2018-06-11T14:46:49.834Z,10.40
2018-06-11T14:49:18.678Z,14.40
2018-06-11T14:51:47.640Z,13.73
2018-06-11T14:54:16.383Z,19.43
2018-06-11T14:56:49.643Z,11.83
2018-06-11T14:59:18.377Z,12.83
2018-06-11T15:01:47.091Z,14.00
2018-06-11T15:04:15.837Z,12.17
2018-06-11T15:06:44.567Z,11.73
2018-06-11T15:09:13.297Z,12.37
2018-06-11T15:11:45.991Z,12.30
2018-06-11T15:14:15.715Z,12.67
2018-06-11T15:16:45.229Z,13.60
2018-06-11T15:19:19.585Z,12.00
2018-06-11T15:21:48.339Z,11.47
2018-06-11T15:27:16.494Z,11.80
2018-06-11T15:29:45.175Z,11.80
2018-06-11T15:32:13.875Z,14.47
2018-06-11T15:34:42.586Z,8.30
2018-06-11T15:37:11.269Z,6.47
2018-06-11T15:39:39.620Z,6.07
2018-06-11T15:42:08.395Z,9.37
2018-06-11T15:44:37.082Z,9.53
2018-06-11T15:47:05.922Z,8.10
2018-06-11T15:49:34.655Z,9.03
2018-06-11T15:52:03.574Z,6.40
2018-06-11T15:54:32.239Z,5.80
2018-06-11T15:59:54.302Z,11.50
2018-06-11T16:02:23.046Z,8.00
2018-06-11T16:04:56.236Z,10.30
2018-06-11T16:07:24.982Z,17.30
2018-06-11T16:09:53.654Z,11.70
2018-06-11T16:12:35.911Z,13.40
2018-06-11T16:15:04.686Z,10.43
2018-06-11T16:17:33.382Z,7.93
2018-06-11T16:20:02.097Z,8.30
2018-06-11T16:22:30.786Z,11.07
2018-06-11T16:24:59.506Z,9.30
2018-06-11T16:27:29.386Z,7.43
2018-06-11T16:29:58.093Z,7.33
2018-06-11T16:32:26.781Z,8.07
2018-06-11T16:34:55.466Z,6.63
2018-06-11T16:37:24.196Z,7.50
2018-06-11T16:39:52.883Z,7.63
2018-06-11T16:42:21.580Z,7.83
2018-06-11T16:44:50.287Z,5.80
2018-06-11T16:47:18.964Z,6.80
2018-06-11T16:49:47.682Z,6.23
2018-06-11T16:52:16.370Z,11.43
2018-06-11T16:54:56.008Z,6.70
2018-06-11T16:57:24.678Z,7.03
2018-06-11T16:59:53.382Z,6.70
2018-06-11T17:02:22.138Z,8.50
2018-06-11T17:04:50.827Z,6.77
2018-06-11T17:07:19.498Z,7.23
2018-06-11T17:09:48.259Z,8.17
2018-06-11T17:12:17.120Z,7.33
2018-06-11T17:14:45.846Z,10.07
2018-06-11T17:17:14.661Z,5.93
2018-06-11T17:19:43.428Z,9.13
2018-06-11T17:22:12.148Z,6.07
2018-06-11T17:24:40.852Z,4.83
2018-06-11T17:27:09.542Z,8.83
2018-06-11T17:29:38.250Z,4.23
2018-06-11T17:32:06.962Z,7.50
2018-06-11T17:34:35.695Z,4.90
2018-06-11T17:37:04.359Z,7.63
2018-06-11T17:39:33.146Z,4.70
2018-06-11T17:42:01.893Z,9.07
2018-06-11T17:44:30.630Z,4.53
2018-06-11T17:46:59.316Z,5.90
2018-06-11T17:49:28.026Z,5.43
2018-06-11T17:51:56.822Z,5.00
2018-06-11T17:54:25.642Z,6.57
2018-06-11T17:56:54.402Z,6.50
2018-06-11T17:59:23.109Z,6.03
2018-06-11T18:01:51.832Z,8.87
2018-06-11T18:04:20.622Z,7.00
2018-06-11T18:06:49.377Z,7.97
2018-06-11T18:09:18.113Z,7.60
2018-06-11T18:11:46.850Z,11.63
2018-06-11T18:14:15.690Z,7.40
2018-06-11T18:16:44.395Z,6.90
2018-06-11T18:19:13.053Z,6.63
2018-06-11T18:21:43.389Z,7.83
2018-06-11T18:24:12.306Z,6.30
2018-06-11T18:26:40.989Z,5.80
2018-06-11T18:29:09.769Z,6.50
2018-06-11T18:31:42.359Z,6.60
2018-06-11T18:34:11.178Z,6.37
2018-06-11T18:36:39.895Z,4.87
2018-06-11T18:39:11.793Z,6.90
2018-06-11T18:41:40.509Z,5.57
2018-06-11T18:44:09.247Z,7.20
2018-06-11T18:46:38.106Z,5.03
2018-06-11T18:49:06.822Z,4.87
2018-06-11T18:51:35.539Z,5.40
2018-06-11T18:54:03.888Z,5.20
2018-06-11T18:56:32.622Z,5.17
2018-06-11T18:59:01.309Z,3.93
2018-06-11T19:01:30.399Z,4.10
2018-06-11T19:03:59.325Z,7.03
2018-06-11T19:06:33.459Z,5.40
2018-06-11T19:09:02.614Z,7.67
2018-06-11T19:14:26.457Z,7.30
2018-06-11T19:16:55.197Z,4.13
2018-06-11T19:19:23.925Z,3.53
2018-06-11T19:21:52.647Z,2.73
2018-06-11T19:24:21.456Z,6.07
2018-06-11T19:26:50.198Z,4.10
2018-06-11T19:29:18.973Z,2.40
2018-06-11T19:31:47.677Z,2.53
2018-06-11T19:34:16.402Z,2.93
2018-06-11T19:36:45.315Z,2.50
2018-06-11T19:39:17.800Z,3.37
2018-06-11T19:41:46.564Z,3.43
2018-06-11T19:44:21.504Z,6.33
2018-06-11T19:46:50.275Z,3.80
2018-06-11T19:49:18.996Z,4.63
2018-06-11T19:51:47.827Z,3.90
2018-06-11T19:54:16.622Z,4.13
2018-06-11T19:56:45.566Z,3.40
2018-06-11T19:59:14.420Z,3.70
2018-06-11T20:01:43.251Z,3.50
2018-06-11T20:04:11.989Z,3.73
2018-06-11T20:06:40.726Z,3.60
2018-06-11T20:09:09.545Z,2.80
2018-06-11T20:11:38.295Z,3.13
2018-06-11T20:14:07.042Z,4.00
2018-06-11T20:16:35.834Z,3.40
2018-06-11T20:19:04.652Z,9.23
2018-06-11T20:21:33.400Z,3.70
2018-06-11T20:24:02.181Z,3.73
2018-06-11T20:26:30.946Z,3.50
2018-06-11T20:29:00.364Z,4.00
2018-06-11T20:31:29.157Z,3.73
2018-06-11T20:33:59.523Z,5.60
2018-06-11T20:36:28.301Z,3.97
2018-06-11T20:38:57.036Z,7.87
2018-06-11T20:41:25.785Z,5.60
2018-06-11T20:43:54.523Z,5.10
2018-06-11T20:46:23.295Z,4.70
2018-06-11T20:48:52.049Z,4.87
2018-06-11T20:51:33.179Z,5.90
2018-06-11T20:54:01.894Z,5.33
2018-06-11T20:56:30.611Z,5.47
2018-06-11T20:58:59.354Z,5.23
2018-06-11T21:01:28.085Z,6.10
2018-06-11T21:03:56.790Z,6.87
2018-06-11T21:06:25.578Z,5.70
2018-06-11T21:08:54.297Z,5.87
2018-06-11T21:11:22.635Z,4.70
2018-06-11T21:13:51.370Z,4.60
2018-06-11T21:16:20.118Z,4.60
2018-06-11T21:18:49.232Z,4.47
2018-06-11T21:21:17.999Z,6.37
2018-06-11T21:23:46.714Z,5.43
2018-06-11T21:26:15.463Z,6.17
2018-06-11T21:28:48.490Z,5.57
2018-06-11T21:31:17.595Z,7.53
2018-06-11T21:33:46.363Z,6.00
2018-06-11T21:36:15.123Z,5.70
2018-06-11T21:38:43.855Z,5.40
2018-06-11T21:41:12.622Z,8.23
2018-06-11T21:43:40.987Z,6.40
2018-06-11T21:46:10.403Z,6.33
2018-06-11T21:48:39.111Z,6.37
2018-06-11T21:51:07.969Z,7.13
2018-06-11T21:53:36.694Z,8.40
2018-06-11T21:56:05.420Z,9.30
2018-06-11T21:58:34.196Z,8.47
2018-06-11T22:01:02.956Z,8.40
2018-06-11T22:03:31.730Z,7.53
2018-06-11T22:06:00.417Z,7.23
2018-06-11T22:08:29.123Z,8.20
2018-06-11T22:11:14.327Z,7.10
2018-06-11T22:13:46.316Z,6.87
2018-06-11T22:16:15.082Z,10.13
2018-06-11T22:18:43.807Z,8.03
2018-06-11T22:21:12.542Z,8.50
2018-06-11T22:23:41.352Z,13.67
2018-06-11T22:26:10.050Z,8.50
2018-06-11T22:28:38.776Z,13.97
2018-06-11T22:31:07.933Z,10.10
2018-06-11T22:33:36.603Z,9.50
2018-06-11T22:36:05.386Z,13.40
2018-06-11T22:38:34.114Z,10.20
2018-06-11T22:41:02.851Z,9.13
2018-06-11T22:43:31.546Z,10.27
2018-06-11T22:46:00.297Z,10.10
2018-06-11T22:48:29.005Z,9.43
2018-06-11T22:50:57.709Z,10.80
2018-06-11T22:53:26.437Z,10.13
2018-06-11T22:55:55.165Z,11.53
2018-06-11T22:58:23.864Z,10.63
2018-06-11T23:00:52.600Z,11.73
2018-06-11T23:03:21.291Z,15.30
2018-06-11T23:05:50.075Z,12.93
2018-06-11T23:08:19.224Z,12.17
2018-06-11T23:10:48.061Z,13.10
2018-06-11T23:13:16.802Z,14.63
2018-06-11T23:15:46.181Z,13.87
2018-06-11T23:18:14.912Z,14.03
2018-06-11T23:20:43.622Z,13.63
2018-06-11T23:23:12.394Z,14.30
2018-06-11T23:25:41.129Z,14.63
2018-06-11T23:28:09.842Z,12.73
2018-06-11T23:30:38.574Z,13.10
2018-06-11T23:33:07.335Z,12.50
2018-06-11T23:35:36.118Z,11.93
2018-06-11T23:38:04.929Z,14.27
2018-06-11T23:40:33.670Z,16.50
2018-06-11T23:49:01.098Z,14.73
2018-06-11T23:51:29.822Z,13.00
2018-06-11T23:53:58.587Z,13.00
2018-06-11T23:56:27.400Z,13.07
2018-06-11T23:58:56.131Z,13.27
